sensor_id;sensor_type;location;lat;lon;timestamp;P1;durP1;ratioP1;P2;durP2;ratioP2
40807;SDS011;26523;52.504;13.498;2023-07-29T00:00:04;13.95;;;7.13;;
40807;SDS011;26523;52.504;13.498;2023-07-29T00:02:33;11.75;;;5.88;;
40807;SDS011;26523;52.504;13.498;2023-07-29T00:05:10;7.20;;;4.32;;
40807;SDS011;26523;52.504;13.498;2023-07-29T00:07:37;11.57;;;6.07;;
40807;SDS011;26523;52.504;13.498;2023-07-29T00:10:03;12.13;;;5.60;;
40807;SDS011;26523;52.504;13.498;2023-07-29T00:12:31;8.52;;;5.47;;
40807;SDS011;26523;52.504;13.498;2023-07-29T00:15:04;10.48;;;5.60;;
40807;SDS011;26523;52.504;13.498;2023-07-29T00:17:34;7.60;;;4.45;;
40807;SDS011;26523;52.504;13.498;2023-07-29T00:20:02;10.75;;;6.03;;
40807;SDS011;26523;52.504;13.498;2023-07-29T00:22:32;9.07;;;5.10;;
40807;SDS011;26523;52.504;13.498;2023-07-29T00:24:57;11.15;;;5.93;;
40807;SDS011;26523;52.504;13.498;2023-07-29T00:27:27;8.63;;;5.25;;
40807;SDS011;26523;52.504;13.498;2023-07-29T00:29:53;8.57;;;5.25;;
40807;SDS011;26523;52.504;13.498;2023-07-29T00:32:30;8.57;;;4.55;;
40807;SDS011;26523;52.504;13.498;2023-07-29T00:34:58;10.48;;;4.72;;
40807;SDS011;26523;52.504;13.498;2023-07-29T00:37:39;8.27;;;5.53;;
40807;SDS011;26523;52.504;13.498;2023-07-29T00:40:15;8.77;;;5.80;;
40807;SDS011;26523;52.504;13.498;2023-07-29T00:42:46;11.68;;;5.72;;
40807;SDS011;26523;52.504;13.498;2023-07-29T00:45:16;9.68;;;5.40;;
40807;SDS011;26523;52.504;13.498;2023-07-29T00:47:43;10.18;;;6.05;;
40807;SDS011;26523;52.504;13.498;2023-07-29T00:50:10;14.48;;;5.88;;
40807;SDS011;26523;52.504;13.498;2023-07-29T00:52:37;11.13;;;5.30;;
40807;SDS011;26523;52.504;13.498;2023-07-29T00:55:06;9.98;;;5.55;;
40807;SDS011;26523;52.504;13.498;2023-07-29T00:57:35;10.65;;;5.32;;
40807;SDS011;26523;52.504;13.498;2023-07-29T01:00:01;13.15;;;6.05;;
40807;SDS011;26523;52.504;13.498;2023-07-29T01:02:29;9.15;;;5.38;;
40807;SDS011;26523;52.504;13.498;2023-07-29T01:04:57;9.75;;;5.57;;
40807;SDS011;26523;52.504;13.498;2023-07-29T01:10:19;9.30;;;5.53;;
40807;SDS011;26523;52.504;13.498;2023-07-29T01:13:13;9.48;;;5.68;;
40807;SDS011;26523;52.504;13.498;2023-07-29T01:15:54;9.48;;;5.78;;
40807;SDS011;26523;52.504;13.498;2023-07-29T01:20:56;10.82;;;5.43;;
40807;SDS011;26523;52.504;13.498;2023-07-29T01:23:25;9.88;;;5.88;;
40807;SDS011;26523;52.504;13.498;2023-07-29T01:25:54;10.23;;;5.57;;
40807;SDS011;26523;52.504;13.498;2023-07-29T01:28:19;10.20;;;5.50;;
40807;SDS011;26523;52.504;13.498;2023-07-29T01:30:46;12.00;;;6.25;;
40807;SDS011;26523;52.504;13.498;2023-07-29T01:33:30;11.60;;;5.95;;
40807;SDS011;26523;52.504;13.498;2023-07-29T01:36:08;10.63;;;5.95;;
40807;SDS011;26523;52.504;13.498;2023-07-29T01:38:38;11.18;;;5.85;;
40807;SDS011;26523;52.504;13.498;2023-07-29T01:41:11;13.70;;;6.10;;
40807;SDS011;26523;52.504;13.498;2023-07-29T01:43:39;9.52;;;5.13;;
40807;SDS011;26523;52.504;13.498;2023-07-29T01:46:12;10.40;;;5.80;;
40807;SDS011;26523;52.504;13.498;2023-07-29T01:48:39;13.40;;;5.55;;
40807;SDS011;26523;52.504;13.498;2023-07-29T01:51:05;7.72;;;4.60;;
40807;SDS011;26523;52.504;13.498;2023-07-29T01:53:32;9.05;;;5.35;;
40807;SDS011;26523;52.504;13.498;2023-07-29T01:55:57;11.85;;;4.70;;
40807;SDS011;26523;52.504;13.498;2023-07-29T01:58:25;10.88;;;5.47;;
40807;SDS011;26523;52.504;13.498;2023-07-29T02:00:50;12.15;;;5.97;;
40807;SDS011;26523;52.504;13.498;2023-07-29T02:03:16;11.63;;;6.53;;
40807;SDS011;26523;52.504;13.498;2023-07-29T02:05:43;8.38;;;5.10;;
40807;SDS011;26523;52.504;13.498;2023-07-29T02:08:09;10.55;;;6.15;;
40807;SDS011;26523;52.504;13.498;2023-07-29T02:10:36;13.75;;;7.00;;
40807;SDS011;26523;52.504;13.498;2023-07-29T02:13:02;11.25;;;6.38;;
40807;SDS011;26523;52.504;13.498;2023-07-29T02:15:30;13.55;;;6.18;;
40807;SDS011;26523;52.504;13.498;2023-07-29T02:17:59;9.85;;;5.55;;
40807;SDS011;26523;52.504;13.498;2023-07-29T02:20:27;13.20;;;5.30;;
40807;SDS011;26523;52.504;13.498;2023-07-29T02:22:54;10.55;;;5.50;;
40807;SDS011;26523;52.504;13.498;2023-07-29T02:25:19;11.18;;;5.70;;
40807;SDS011;26523;52.504;13.498;2023-07-29T02:27:46;12.07;;;5.85;;
40807;SDS011;26523;52.504;13.498;2023-07-29T02:30:15;9.07;;;5.80;;
40807;SDS011;26523;52.504;13.498;2023-07-29T02:32:41;13.15;;;6.05;;
40807;SDS011;26523;52.504;13.498;2023-07-29T02:35:07;11.55;;;6.20;;
40807;SDS011;26523;52.504;13.498;2023-07-29T02:37:33;13.07;;;6.18;;
40807;SDS011;26523;52.504;13.498;2023-07-29T02:39:58;11.73;;;5.20;;
40807;SDS011;26523;52.504;13.498;2023-07-29T02:42:24;9.80;;;5.43;;
40807;SDS011;26523;52.504;13.498;2023-07-29T02:44:50;12.50;;;6.07;;
40807;SDS011;26523;52.504;13.498;2023-07-29T02:47:15;10.18;;;5.72;;
40807;SDS011;26523;52.504;13.498;2023-07-29T02:49:42;12.95;;;5.80;;
40807;SDS011;26523;52.504;13.498;2023-07-29T02:52:07;8.63;;;5.40;;
40807;SDS011;26523;52.504;13.498;2023-07-29T02:54:33;10.55;;;6.40;;
40807;SDS011;26523;52.504;13.498;2023-07-29T02:56:58;10.05;;;5.35;;
40807;SDS011;26523;52.504;13.498;2023-07-29T02:59:26;13.52;;;6.57;;
40807;SDS011;26523;52.504;13.498;2023-07-29T03:01:51;11.10;;;6.20;;
40807;SDS011;26523;52.504;13.498;2023-07-29T03:04:18;10.07;;;5.28;;
40807;SDS011;26523;52.504;13.498;2023-07-29T03:06:44;10.05;;;5.75;;
40807;SDS011;26523;52.504;13.498;2023-07-29T03:09:10;9.05;;;5.65;;
40807;SDS011;26523;52.504;13.498;2023-07-29T03:11:35;11.07;;;5.53;;
40807;SDS011;26523;52.504;13.498;2023-07-29T03:14:01;12.55;;;6.10;;
40807;SDS011;26523;52.504;13.498;2023-07-29T03:16:28;11.63;;;5.50;;
40807;SDS011;26523;52.504;13.498;2023-07-29T03:18:53;12.90;;;6.22;;
40807;SDS011;26523;52.504;13.498;2023-07-29T03:21:19;10.85;;;5.70;;
40807;SDS011;26523;52.504;13.498;2023-07-29T03:23:47;11.70;;;5.18;;
40807;SDS011;26523;52.504;13.498;2023-07-29T03:26:13;12.02;;;5.68;;
40807;SDS011;26523;52.504;13.498;2023-07-29T03:28:39;10.90;;;5.60;;
40807;SDS011;26523;52.504;13.498;2023-07-29T03:31:07;10.88;;;5.45;;
40807;SDS011;26523;52.504;13.498;2023-07-29T03:33:33;11.20;;;4.95;;
40807;SDS011;26523;52.504;13.498;2023-07-29T03:36:01;9.93;;;5.43;;
40807;SDS011;26523;52.504;13.498;2023-07-29T03:38:27;9.27;;;5.72;;
40807;SDS011;26523;52.504;13.498;2023-07-29T03:40:54;10.95;;;6.45;;
40807;SDS011;26523;52.504;13.498;2023-07-29T03:43:21;11.27;;;5.75;;
40807;SDS011;26523;52.504;13.498;2023-07-29T03:45:48;9.00;;;5.45;;
40807;SDS011;26523;52.504;13.498;2023-07-29T03:48:14;10.52;;;5.82;;
40807;SDS011;26523;52.504;13.498;2023-07-29T03:50:39;9.80;;;5.43;;
40807;SDS011;26523;52.504;13.498;2023-07-29T03:53:06;9.63;;;5.72;;
40807;SDS011;26523;52.504;13.498;2023-07-29T03:55:32;10.07;;;5.60;;
40807;SDS011;26523;52.504;13.498;2023-07-29T03:57:59;8.93;;;5.68;;
40807;SDS011;26523;52.504;13.498;2023-07-29T04:00:25;10.02;;;5.07;;
40807;SDS011;26523;52.504;13.498;2023-07-29T04:02:51;9.38;;;5.45;;
40807;SDS011;26523;52.504;13.498;2023-07-29T04:05:17;11.45;;;5.28;;
40807;SDS011;26523;52.504;13.498;2023-07-29T04:07:43;8.20;;;5.22;;
40807;SDS011;26523;52.504;13.498;2023-07-29T04:10:09;9.77;;;5.85;;
40807;SDS011;26523;52.504;13.498;2023-07-29T04:12:35;11.05;;;5.68;;
40807;SDS011;26523;52.504;13.498;2023-07-29T04:15:01;8.98;;;5.35;;
40807;SDS011;26523;52.504;13.498;2023-07-29T04:17:31;9.23;;;5.50;;
40807;SDS011;26523;52.504;13.498;2023-07-29T04:19:57;9.85;;;5.57;;
40807;SDS011;26523;52.504;13.498;2023-07-29T04:22:22;10.38;;;5.38;;
40807;SDS011;26523;52.504;13.498;2023-07-29T04:24:48;11.00;;;5.72;;
40807;SDS011;26523;52.504;13.498;2023-07-29T04:27:14;11.38;;;6.57;;
40807;SDS011;26523;52.504;13.498;2023-07-29T04:29:39;9.52;;;5.13;;
40807;SDS011;26523;52.504;13.498;2023-07-29T04:32:06;9.40;;;5.03;;
40807;SDS011;26523;52.504;13.498;2023-07-29T04:34:33;9.40;;;4.85;;
40807;SDS011;26523;52.504;13.498;2023-07-29T04:36:59;10.90;;;5.40;;
40807;SDS011;26523;52.504;13.498;2023-07-29T04:39:25;8.80;;;4.45;;
40807;SDS011;26523;52.504;13.498;2023-07-29T04:41:51;8.60;;;4.93;;
40807;SDS011;26523;52.504;13.498;2023-07-29T04:44:17;7.93;;;4.75;;
40807;SDS011;26523;52.504;13.498;2023-07-29T04:46:42;9.00;;;4.80;;
40807;SDS011;26523;52.504;13.498;2023-07-29T04:49:08;9.88;;;5.07;;
40807;SDS011;26523;52.504;13.498;2023-07-29T04:51:34;9.60;;;5.53;;
40807;SDS011;26523;52.504;13.498;2023-07-29T04:53:59;10.30;;;5.13;;
40807;SDS011;26523;52.504;13.498;2023-07-29T04:56:25;7.75;;;4.85;;
40807;SDS011;26523;52.504;13.498;2023-07-29T04:58:51;8.52;;;5.05;;
40807;SDS011;26523;52.504;13.498;2023-07-29T05:01:18;8.73;;;5.00;;
40807;SDS011;26523;52.504;13.498;2023-07-29T05:03:48;8.50;;;4.80;;
40807;SDS011;26523;52.504;13.498;2023-07-29T05:06:13;8.45;;;5.05;;
40807;SDS011;26523;52.504;13.498;2023-07-29T05:08:40;7.40;;;4.22;;
40807;SDS011;26523;52.504;13.498;2023-07-29T05:11:06;7.80;;;4.55;;
40807;SDS011;26523;52.504;13.498;2023-07-29T05:13:32;7.78;;;4.47;;
40807;SDS011;26523;52.504;13.498;2023-07-29T05:15:57;8.77;;;4.22;;
40807;SDS011;26523;52.504;13.498;2023-07-29T05:18:23;9.43;;;4.43;;
40807;SDS011;26523;52.504;13.498;2023-07-29T05:20:54;8.02;;;4.43;;
40807;SDS011;26523;52.504;13.498;2023-07-29T05:23:20;8.02;;;4.78;;
40807;SDS011;26523;52.504;13.498;2023-07-29T05:25:45;8.00;;;4.85;;
40807;SDS011;26523;52.504;13.498;2023-07-29T05:28:11;9.32;;;5.55;;
40807;SDS011;26523;52.504;13.498;2023-07-29T05:30:37;7.55;;;5.05;;
40807;SDS011;26523;52.504;13.498;2023-07-29T05:33:03;7.65;;;4.47;;
40807;SDS011;26523;52.504;13.498;2023-07-29T05:35:29;7.00;;;3.88;;
40807;SDS011;26523;52.504;13.498;2023-07-29T05:37:55;8.25;;;4.30;;
40807;SDS011;26523;52.504;13.498;2023-07-29T05:40:21;7.07;;;4.00;;
40807;SDS011;26523;52.504;13.498;2023-07-29T05:42:46;7.03;;;3.83;;
40807;SDS011;26523;52.504;13.498;2023-07-29T05:45:13;7.25;;;4.20;;
40807;SDS011;26523;52.504;13.498;2023-07-29T05:47:39;5.13;;;3.47;;
40807;SDS011;26523;52.504;13.498;2023-07-29T05:50:06;9.00;;;5.20;;
40807;SDS011;26523;52.504;13.498;2023-07-29T05:52:32;7.20;;;4.68;;
40807;SDS011;26523;52.504;13.498;2023-07-29T05:54:58;7.93;;;4.43;;
40807;SDS011;26523;52.504;13.498;2023-07-29T05:57:25;5.20;;;3.30;;
40807;SDS011;26523;52.504;13.498;2023-07-29T05:59:51;7.35;;;3.78;;
40807;SDS011;26523;52.504;13.498;2023-07-29T06:02:16;9.90;;;3.97;;
40807;SDS011;26523;52.504;13.498;2023-07-29T06:04:44;7.63;;;3.50;;
40807;SDS011;26523;52.504;13.498;2023-07-29T06:07:09;6.35;;;3.15;;
40807;SDS011;26523;52.504;13.498;2023-07-29T06:09:35;7.45;;;4.25;;
40807;SDS011;26523;52.504;13.498;2023-07-29T06:12:01;5.60;;;3.42;;
40807;SDS011;26523;52.504;13.498;2023-07-29T06:14:27;6.07;;;3.47;;
40807;SDS011;26523;52.504;13.498;2023-07-29T06:16:53;4.05;;;2.75;;
40807;SDS011;26523;52.504;13.498;2023-07-29T06:19:19;3.80;;;1.95;;
40807;SDS011;26523;52.504;13.498;2023-07-29T06:21:45;4.57;;;2.03;;
40807;SDS011;26523;52.504;13.498;2023-07-29T06:24:11;4.50;;;2.85;;
40807;SDS011;26523;52.504;13.498;2023-07-29T06:26:38;4.88;;;2.92;;
40807;SDS011;26523;52.504;13.498;2023-07-29T06:29:04;4.35;;;2.50;;
40807;SDS011;26523;52.504;13.498;2023-07-29T06:31:30;4.05;;;2.20;;
40807;SDS011;26523;52.504;13.498;2023-07-29T06:33:57;4.38;;;2.53;;
40807;SDS011;26523;52.504;13.498;2023-07-29T06:36:23;3.53;;;2.15;;
40807;SDS011;26523;52.504;13.498;2023-07-29T06:38:49;3.60;;;2.20;;
40807;SDS011;26523;52.504;13.498;2023-07-29T06:41:15;3.88;;;2.20;;
40807;SDS011;26523;52.504;13.498;2023-07-29T06:43:41;2.83;;;1.75;;
40807;SDS011;26523;52.504;13.498;2023-07-29T06:46:07;3.50;;;2.05;;
40807;SDS011;26523;52.504;13.498;2023-07-29T06:48:33;2.75;;;1.90;;
40807;SDS011;26523;52.504;13.498;2023-07-29T06:50:58;3.08;;;1.90;;
40807;SDS011;26523;52.504;13.498;2023-07-29T06:53:26;4.55;;;2.13;;
40807;SDS011;26523;52.504;13.498;2023-07-29T06:55:53;3.40;;;1.90;;
40807;SDS011;26523;52.504;13.498;2023-07-29T06:58:19;3.92;;;2.00;;
40807;SDS011;26523;52.504;13.498;2023-07-29T07:00:46;4.30;;;1.77;;
40807;SDS011;26523;52.504;13.498;2023-07-29T07:03:13;6.90;;;2.22;;
40807;SDS011;26523;52.504;13.498;2023-07-29T07:05:38;3.38;;;1.90;;
40807;SDS011;26523;52.504;13.498;2023-07-29T07:08:04;3.70;;;2.13;;
40807;SDS011;26523;52.504;13.498;2023-07-29T07:10:30;4.63;;;2.35;;
40807;SDS011;26523;52.504;13.498;2023-07-29T07:12:56;3.50;;;1.92;;
40807;SDS011;26523;52.504;13.498;2023-07-29T07:15:22;4.85;;;1.80;;
40807;SDS011;26523;52.504;13.498;2023-07-29T07:17:47;4.20;;;1.80;;
40807;SDS011;26523;52.504;13.498;2023-07-29T07:20:13;3.78;;;2.20;;
40807;SDS011;26523;52.504;13.498;2023-07-29T07:22:41;4.53;;;2.05;;
40807;SDS011;26523;52.504;13.498;2023-07-29T07:25:06;5.45;;;2.03;;
40807;SDS011;26523;52.504;13.498;2023-07-29T07:27:33;3.80;;;2.17;;
40807;SDS011;26523;52.504;13.498;2023-07-29T07:30:01;2.97;;;2.08;;
40807;SDS011;26523;52.504;13.498;2023-07-29T07:32:26;3.95;;;1.80;;
40807;SDS011;26523;52.504;13.498;2023-07-29T07:34:53;5.45;;;2.33;;
40807;SDS011;26523;52.504;13.498;2023-07-29T07:37:19;4.25;;;2.42;;
40807;SDS011;26523;52.504;13.498;2023-07-29T07:39:44;5.85;;;2.72;;
40807;SDS011;26523;52.504;13.498;2023-07-29T07:42:11;3.47;;;2.22;;
40807;SDS011;26523;52.504;13.498;2023-07-29T07:44:37;3.58;;;2.00;;
40807;SDS011;26523;52.504;13.498;2023-07-29T07:47:03;3.63;;;2.28;;
40807;SDS011;26523;52.504;13.498;2023-07-29T07:49:29;4.22;;;2.53;;
40807;SDS011;26523;52.504;13.498;2023-07-29T07:51:54;5.07;;;2.28;;
40807;SDS011;26523;52.504;13.498;2023-07-29T07:54:20;3.33;;;2.17;;
40807;SDS011;26523;52.504;13.498;2023-07-29T07:56:46;5.40;;;2.10;;
40807;SDS011;26523;52.504;13.498;2023-07-29T07:59:12;5.78;;;2.78;;
40807;SDS011;26523;52.504;13.498;2023-07-29T08:01:38;2.83;;;2.00;;
40807;SDS011;26523;52.504;13.498;2023-07-29T08:04:05;3.28;;;2.17;;
40807;SDS011;26523;52.504;13.498;2023-07-29T08:06:31;3.45;;;2.28;;
40807;SDS011;26523;52.504;13.498;2023-07-29T08:08:57;5.60;;;2.33;;
40807;SDS011;26523;52.504;13.498;2023-07-29T08:11:23;3.60;;;1.90;;
40807;SDS011;26523;52.504;13.498;2023-07-29T08:13:50;6.07;;;1.80;;
40807;SDS011;26523;52.504;13.498;2023-07-29T08:16:15;5.05;;;1.92;;
40807;SDS011;26523;52.504;13.498;2023-07-29T08:18:41;3.08;;;1.77;;
40807;SDS011;26523;52.504;13.498;2023-07-29T08:21:06;4.28;;;2.30;;
40807;SDS011;26523;52.504;13.498;2023-07-29T08:23:33;4.90;;;2.10;;
40807;SDS011;26523;52.504;13.498;2023-07-29T08:26:01;3.55;;;2.30;;
40807;SDS011;26523;52.504;13.498;2023-07-29T08:28:29;4.45;;;2.35;;
40807;SDS011;26523;52.504;13.498;2023-07-29T08:30:57;5.00;;;2.47;;
40807;SDS011;26523;52.504;13.498;2023-07-29T08:33:23;3.45;;;2.05;;
40807;SDS011;26523;52.504;13.498;2023-07-29T08:35:49;3.63;;;1.80;;
40807;SDS011;26523;52.504;13.498;2023-07-29T08:38:15;3.80;;;2.10;;
40807;SDS011;26523;52.504;13.498;2023-07-29T08:40:50;3.90;;;1.95;;
40807;SDS011;26523;52.504;13.498;2023-07-29T08:43:39;3.40;;;1.80;;
40807;SDS011;26523;52.504;13.498;2023-07-29T08:46:15;3.92;;;2.38;;
40807;SDS011;26523;52.504;13.498;2023-07-29T08:48:42;3.88;;;2.13;;
40807;SDS011;26523;52.504;13.498;2023-07-29T08:51:09;4.47;;;2.05;;
40807;SDS011;26523;52.504;13.498;2023-07-29T08:53:37;2.75;;;1.73;;
40807;SDS011;26523;52.504;13.498;2023-07-29T08:56:06;2.65;;;1.67;;
40807;SDS011;26523;52.504;13.498;2023-07-29T08:58:45;2.58;;;1.70;;
40807;SDS011;26523;52.504;13.498;2023-07-29T09:01:11;2.47;;;1.70;;
40807;SDS011;26523;52.504;13.498;2023-07-29T09:03:38;3.00;;;2.00;;
40807;SDS011;26523;52.504;13.498;2023-07-29T09:06:07;8.20;;;1.90;;
40807;SDS011;26523;52.504;13.498;2023-07-29T09:08:33;4.40;;;2.33;;
40807;SDS011;26523;52.504;13.498;2023-07-29T09:11:02;6.57;;;2.10;;
40807;SDS011;26523;52.504;13.498;2023-07-29T09:13:28;4.32;;;2.35;;
40807;SDS011;26523;52.504;13.498;2023-07-29T09:15:55;4.15;;;2.25;;
40807;SDS011;26523;52.504;13.498;2023-07-29T09:18:22;2.72;;;1.90;;
40807;SDS011;26523;52.504;13.498;2023-07-29T09:20:48;7.63;;;4.32;;
40807;SDS011;26523;52.504;13.498;2023-07-29T09:23:14;5.65;;;3.60;;
40807;SDS011;26523;52.504;13.498;2023-07-29T09:25:42;4.45;;;2.08;;
40807;SDS011;26523;52.504;13.498;2023-07-29T09:28:09;6.68;;;1.98;;
40807;SDS011;26523;52.504;13.498;2023-07-29T09:30:47;4.10;;;2.33;;
40807;SDS011;26523;52.504;13.498;2023-07-29T09:33:13;4.45;;;2.75;;
40807;SDS011;26523;52.504;13.498;2023-07-29T09:35:39;3.13;;;1.85;;
40807;SDS011;26523;52.504;13.498;2023-07-29T09:38:05;2.80;;;1.80;;
40807;SDS011;26523;52.504;13.498;2023-07-29T09:40:38;4.03;;;2.47;;
40807;SDS011;26523;52.504;13.498;2023-07-29T09:43:06;3.90;;;2.17;;
40807;SDS011;26523;52.504;13.498;2023-07-29T09:45:36;5.32;;;2.15;;
40807;SDS011;26523;52.504;13.498;2023-07-29T09:48:03;3.60;;;1.75;;
40807;SDS011;26523;52.504;13.498;2023-07-29T09:50:34;3.45;;;1.75;;
40807;SDS011;26523;52.504;13.498;2023-07-29T09:53:02;3.03;;;1.58;;
40807;SDS011;26523;52.504;13.498;2023-07-29T09:55:28;5.90;;;3.33;;
40807;SDS011;26523;52.504;13.498;2023-07-29T09:57:57;3.63;;;2.03;;
40807;SDS011;26523;52.504;13.498;2023-07-29T10:00:26;3.47;;;1.83;;
40807;SDS011;26523;52.504;13.498;2023-07-29T10:02:57;3.78;;;1.80;;
40807;SDS011;26523;52.504;13.498;2023-07-29T10:05:25;2.75;;;1.70;;
40807;SDS011;26523;52.504;13.498;2023-07-29T10:07:51;7.22;;;2.25;;
40807;SDS011;26523;52.504;13.498;2023-07-29T10:10:18;7.68;;;4.75;;
40807;SDS011;26523;52.504;13.498;2023-07-29T10:12:45;5.10;;;2.88;;
40807;SDS011;26523;52.504;13.498;2023-07-29T10:15:13;6.35;;;2.70;;
40807;SDS011;26523;52.504;13.498;2023-07-29T10:17:41;5.35;;;2.50;;
40807;SDS011;26523;52.504;13.498;2023-07-29T10:20:07;2.95;;;1.92;;
40807;SDS011;26523;52.504;13.498;2023-07-29T10:22:39;2.67;;;1.70;;
40807;SDS011;26523;52.504;13.498;2023-07-29T10:27:48;3.35;;;1.75;;
40807;SDS011;26523;52.504;13.498;2023-07-29T10:30:20;3.60;;;1.70;;
40807;SDS011;26523;52.504;13.498;2023-07-29T10:32:48;2.72;;;1.77;;
40807;SDS011;26523;52.504;13.498;2023-07-29T10:35:16;2.55;;;1.67;;
40807;SDS011;26523;52.504;13.498;2023-07-29T10:37:42;2.95;;;1.63;;
40807;SDS011;26523;52.504;13.498;2023-07-29T10:40:10;2.90;;;1.67;;
40807;SDS011;26523;52.504;13.498;2023-07-29T10:42:37;2.13;;;1.02;;
40807;SDS011;26523;52.504;13.498;2023-07-29T10:45:24;2.25;;;1.40;;
40807;SDS011;26523;52.504;13.498;2023-07-29T10:47:50;2.28;;;1.30;;
40807;SDS011;26523;52.504;13.498;2023-07-29T10:50:20;2.92;;;1.30;;
40807;SDS011;26523;52.504;13.498;2023-07-29T10:52:51;2.22;;;1.23;;
40807;SDS011;26523;52.504;13.498;2023-07-29T10:55:32;2.22;;;1.33;;
40807;SDS011;26523;52.504;13.498;2023-07-29T10:58:12;1.65;;;1.10;;
40807;SDS011;26523;52.504;13.498;2023-07-29T11:00:38;1.40;;;1.05;;
40807;SDS011;26523;52.504;13.498;2023-07-29T11:03:06;5.95;;;3.17;;
40807;SDS011;26523;52.504;13.498;2023-07-29T11:08:21;2.85;;;1.30;;
40807;SDS011;26523;52.504;13.498;2023-07-29T11:13:29;4.95;;;1.90;;
40807;SDS011;26523;52.504;13.498;2023-07-29T11:15:56;2.00;;;1.23;;
40807;SDS011;26523;52.504;13.498;2023-07-29T11:18:42;2.70;;;1.60;;
40807;SDS011;26523;52.504;13.498;2023-07-29T11:21:10;3.80;;;1.58;;
40807;SDS011;26523;52.504;13.498;2023-07-29T11:23:36;3.40;;;1.30;;
40807;SDS011;26523;52.504;13.498;2023-07-29T11:26:03;2.67;;;1.42;;
40807;SDS011;26523;52.504;13.498;2023-07-29T11:28:29;6.88;;;1.70;;
40807;SDS011;26523;52.504;13.498;2023-07-29T11:30:55;8.57;;;1.60;;
40807;SDS011;26523;52.504;13.498;2023-07-29T11:33:23;5.68;;;2.05;;
40807;SDS011;26523;52.504;13.498;2023-07-29T11:35:50;3.80;;;1.60;;
40807;SDS011;26523;52.504;13.498;2023-07-29T11:38:17;2.53;;;0.90;;
40807;SDS011;26523;52.504;13.498;2023-07-29T11:40:59;5.78;;;1.25;;
40807;SDS011;26523;52.504;13.498;2023-07-29T11:43:26;5.25;;;0.95;;
40807;SDS011;26523;52.504;13.498;2023-07-29T11:45:52;4.05;;;0.90;;
40807;SDS011;26523;52.504;13.498;2023-07-29T11:48:18;2.15;;;0.65;;
40807;SDS011;26523;52.504;13.498;2023-07-29T11:50:54;5.13;;;1.40;;
40807;SDS011;26523;52.504;13.498;2023-07-29T11:53:20;4.20;;;1.15;;
40807;SDS011;26523;52.504;13.498;2023-07-29T11:55:49;4.85;;;1.52;;
40807;SDS011;26523;52.504;13.498;2023-07-29T11:58:18;3.92;;;1.17;;
40807;SDS011;26523;52.504;13.498;2023-07-29T12:00:43;2.75;;;1.30;;
40807;SDS011;26523;52.504;13.498;2023-07-29T12:03:09;4.82;;;1.38;;
40807;SDS011;26523;52.504;13.498;2023-07-29T12:05:38;2.60;;;1.25;;
40807;SDS011;26523;52.504;13.498;2023-07-29T12:08:06;4.60;;;1.50;;
40807;SDS011;26523;52.504;13.498;2023-07-29T12:10:34;5.78;;;1.42;;
40807;SDS011;26523;52.504;13.498;2023-07-29T12:13:01;2.58;;;0.88;;
40807;SDS011;26523;52.504;13.498;2023-07-29T12:15:28;2.35;;;0.85;;
40807;SDS011;26523;52.504;13.498;2023-07-29T12:17:55;0.80;;;0.70;;
40807;SDS011;26523;52.504;13.498;2023-07-29T12:20:22;2.15;;;0.68;;
40807;SDS011;26523;52.504;13.498;2023-07-29T12:22:52;3.20;;;0.88;;
40807;SDS011;26523;52.504;13.498;2023-07-29T12:25:18;2.05;;;0.90;;
40807;SDS011;26523;52.504;13.498;2023-07-29T12:27:44;3.97;;;1.33;;
40807;SDS011;26523;52.504;13.498;2023-07-29T12:30:10;2.47;;;1.02;;
40807;SDS011;26523;52.504;13.498;2023-07-29T12:32:44;2.55;;;1.20;;
40807;SDS011;26523;52.504;13.498;2023-07-29T12:35:10;1.58;;;1.20;;
40807;SDS011;26523;52.504;13.498;2023-07-29T12:37:35;4.47;;;1.55;;
40807;SDS011;26523;52.504;13.498;2023-07-29T12:40:03;3.53;;;1.50;;
40807;SDS011;26523;52.504;13.498;2023-07-29T12:42:29;2.92;;;1.38;;
40807;SDS011;26523;52.504;13.498;2023-07-29T12:45:05;3.75;;;1.80;;
40807;SDS011;26523;52.504;13.498;2023-07-29T12:47:33;2.22;;;1.40;;
40807;SDS011;26523;52.504;13.498;2023-07-29T12:49:58;4.50;;;1.58;;
40807;SDS011;26523;52.504;13.498;2023-07-29T12:52:26;3.35;;;1.80;;
40807;SDS011;26523;52.504;13.498;2023-07-29T12:54:51;4.70;;;1.90;;
40807;SDS011;26523;52.504;13.498;2023-07-29T12:57:17;3.30;;;1.30;;
40807;SDS011;26523;52.504;13.498;2023-07-29T12:59:42;4.65;;;1.50;;
40807;SDS011;26523;52.504;13.498;2023-07-29T13:02:08;7.75;;;2.17;;
40807;SDS011;26523;52.504;13.498;2023-07-29T13:04:34;7.20;;;3.50;;
40807;SDS011;26523;52.504;13.498;2023-07-29T13:07:01;2.47;;;1.42;;
40807;SDS011;26523;52.504;13.498;2023-07-29T13:09:27;2.53;;;1.25;;
40807;SDS011;26523;52.504;13.498;2023-07-29T13:11:52;3.83;;;1.60;;
40807;SDS011;26523;52.504;13.498;2023-07-29T13:14:18;3.35;;;1.75;;
40807;SDS011;26523;52.504;13.498;2023-07-29T13:16:43;3.97;;;1.80;;
40807;SDS011;26523;52.504;13.498;2023-07-29T13:19:09;3.10;;;1.90;;
40807;SDS011;26523;52.504;13.498;2023-07-29T13:21:35;5.03;;;1.73;;
40807;SDS011;26523;52.504;13.498;2023-07-29T13:24:01;2.42;;;1.58;;
40807;SDS011;26523;52.504;13.498;2023-07-29T13:26:26;3.15;;;1.85;;
40807;SDS011;26523;52.504;13.498;2023-07-29T13:28:52;3.28;;;1.52;;
40807;SDS011;26523;52.504;13.498;2023-07-29T13:31:20;3.15;;;1.52;;
40807;SDS011;26523;52.504;13.498;2023-07-29T13:33:45;4.03;;;2.05;;
40807;SDS011;26523;52.504;13.498;2023-07-29T13:36:11;4.38;;;1.70;;
40807;SDS011;26523;52.504;13.498;2023-07-29T13:38:36;2.92;;;1.52;;
40807;SDS011;26523;52.504;13.498;2023-07-29T13:41:02;5.00;;;1.60;;
40807;SDS011;26523;52.504;13.498;2023-07-29T13:43:28;3.80;;;1.80;;
40807;SDS011;26523;52.504;13.498;2023-07-29T13:45:54;3.70;;;2.00;;
40807;SDS011;26523;52.504;13.498;2023-07-29T13:48:19;4.00;;;2.15;;
40807;SDS011;26523;52.504;13.498;2023-07-29T13:50:45;4.15;;;2.25;;
40807;SDS011;26523;52.504;13.498;2023-07-29T13:53:11;5.03;;;2.03;;
40807;SDS011;26523;52.504;13.498;2023-07-29T13:55:38;3.17;;;1.80;;
40807;SDS011;26523;52.504;13.498;2023-07-29T13:58:03;5.70;;;2.47;;
40807;SDS011;26523;52.504;13.498;2023-07-29T14:00:29;3.17;;;1.80;;
40807;SDS011;26523;52.504;13.498;2023-07-29T14:02:55;5.68;;;2.50;;
40807;SDS011;26523;52.504;13.498;2023-07-29T14:05:21;5.32;;;2.75;;
40807;SDS011;26523;52.504;13.498;2023-07-29T14:07:50;3.47;;;1.88;;
40807;SDS011;26523;52.504;13.498;2023-07-29T14:10:16;3.30;;;1.73;;
40807;SDS011;26523;52.504;13.498;2023-07-29T14:12:41;2.83;;;1.20;;
40807;SDS011;26523;52.504;13.498;2023-07-29T14:15:07;2.08;;;1.35;;
40807;SDS011;26523;52.504;13.498;2023-07-29T14:17:33;2.55;;;1.15;;
40807;SDS011;26523;52.504;13.498;2023-07-29T14:19:59;3.40;;;1.50;;
40807;SDS011;26523;52.504;13.498;2023-07-29T14:22:25;3.10;;;1.42;;
40807;SDS011;26523;52.504;13.498;2023-07-29T14:24:51;2.60;;;1.15;;
40807;SDS011;26523;52.504;13.498;2023-07-29T14:27:17;3.17;;;1.50;;
40807;SDS011;26523;52.504;13.498;2023-07-29T14:29:42;3.00;;;1.38;;
40807;SDS011;26523;52.504;13.498;2023-07-29T14:32:08;2.88;;;1.40;;
40807;SDS011;26523;52.504;13.498;2023-07-29T14:34:34;3.47;;;1.20;;
40807;SDS011;26523;52.504;13.498;2023-07-29T14:36:59;2.38;;;1.08;;
40807;SDS011;26523;52.504;13.498;2023-07-29T14:39:25;3.75;;;1.50;;
40807;SDS011;26523;52.504;13.498;2023-07-29T14:41:50;2.35;;;1.17;;
40807;SDS011;26523;52.504;13.498;2023-07-29T14:44:16;2.70;;;1.30;;